San Francisco, California
Traffic Map
Current Weather Conditions
San Francisco, California
Broken Clouds
Broken Clouds
70°
Feels Like: 70°
Wind Chill: 70° Ceiling: 18000
Heat Index: 70° Visibility: 10mi
Dew Point: 61° Wind: 3mph
Humidity: 73% Direction: 60° (ENE)
Pressure: 30.07in Gusts: 0mph
Raw Report DataKSFO 231856Z 06003KT 10SM FEW020 BKN180 21/16 A3007 RMK AO2 SLP181 T02110161
Traffic Incident Summary
Active as of:
Severity:
Category:
InformationThere was an issue retrieving the traffic information for this location. Please try a different location or try again shortly.
Advertisements
Track Severe Weather on mobile